sensor_id;sensor_type;location;lat;lon;timestamp;pressure;altitude;pressure_sealevel;temperature;humidity
55757;BME280;41676;44.610;44.078;2023-07-20T00:01:18;99770.63;;;23.45;69.16
55757;BME280;41676;44.610;44.078;2023-07-20T00:06:19;99833.94;;;23.81;69.19
55757;BME280;41676;44.610;44.078;2023-07-20T00:11:20;99743.47;;;23.19;69.57
55757;BME280;41676;44.610;44.078;2023-07-20T00:16:20;99721.16;;;22.97;69.83
55757;BME280;41676;44.610;44.078;2023-07-20T00:21:23;99839.84;;;23.68;69.93
55757;BME280;41676;44.610;44.078;2023-07-20T00:26:23;99834.63;;;23.56;70.11
55757;BME280;41676;44.610;44.078;2023-07-20T00:31:27;99790.09;;;23.27;71.01
55757;BME280;41676;44.610;44.078;2023-07-20T00:36:29;99840.84;;;23.46;70.90
55757;BME280;41676;44.610;44.078;2023-07-20T00:41:30;99819.38;;;23.24;71.41
55757;BME280;41676;44.610;44.078;2023-07-20T00:46:32;99821.50;;;23.22;72.14
55757;BME280;41676;44.610;44.078;2023-07-20T00:51:33;99828.75;;;23.12;72.39
55757;BME280;41676;44.610;44.078;2023-07-20T00:56:34;99772.75;;;22.75;72.85
55757;BME280;41676;44.610;44.078;2023-07-20T01:01:35;99822.50;;;23.01;73.65
55757;BME280;41676;44.610;44.078;2023-07-20T01:06:45;99865.16;;;23.26;73.77
55757;BME280;41676;44.610;44.078;2023-07-20T01:11:57;99789.03;;;22.80;73.99
55757;BME280;41676;44.610;44.078;2023-07-20T01:17:01;99864.28;;;23.15;74.29
55757;BME280;41676;44.610;44.078;2023-07-20T01:32:32;99886.47;;;23.12;74.81
55757;BME280;41676;44.610;44.078;2023-07-20T01:37:34;99888.66;;;23.10;74.38
55757;BME280;41676;44.610;44.078;2023-07-20T01:42:35;99891.31;;;23.05;73.83
55757;BME280;41676;44.610;44.078;2023-07-20T01:47:36;99860.22;;;22.75;73.82
55757;BME280;41676;44.610;44.078;2023-07-20T01:52:37;99905.91;;;22.99;74.06
55757;BME280;41676;44.610;44.078;2023-07-20T01:57:38;99892.28;;;22.89;73.71
55757;BME280;41676;44.610;44.078;2023-07-20T02:02:38;99901.59;;;23.03;73.34
55757;BME280;41676;44.610;44.078;2023-07-20T02:07:39;99893.97;;;23.00;73.22
55757;BME280;41676;44.610;44.078;2023-07-20T02:12:40;99912.84;;;23.22;73.02
55757;BME280;41676;44.610;44.078;2023-07-20T02:17:40;99880.19;;;23.01;72.35
55757;BME280;41676;44.610;44.078;2023-07-20T02:22:41;99902.72;;;23.12;72.19
55757;BME280;41676;44.610;44.078;2023-07-20T02:27:42;99934.31;;;23.34;72.19
55757;BME280;41676;44.610;44.078;2023-07-20T02:32:43;99875.88;;;23.06;71.99
55757;BME280;41676;44.610;44.078;2023-07-20T02:37:46;99885.50;;;23.29;72.17
55757;BME280;41676;44.610;44.078;2023-07-20T02:42:46;99934.56;;;23.80;71.85
55757;BME280;41676;44.610;44.078;2023-07-20T02:47:47;99903.09;;;23.84;71.84
55757;BME280;41676;44.610;44.078;2023-07-20T02:52:48;99848.22;;;23.61;72.26
55757;BME280;41676;44.610;44.078;2023-07-20T02:57:49;99926.22;;;24.07;72.14
55757;BME280;41676;44.610;44.078;2023-07-20T03:02:51;99940.13;;;24.21;72.80
55757;BME280;41676;44.610;44.078;2023-07-20T03:07:55;99915.44;;;25.30;69.40
55757;BME280;41676;44.610;44.078;2023-07-20T03:12:56;99814.66;;;24.95;67.55
55757;BME280;41676;44.610;44.078;2023-07-20T03:17:57;99921.00;;;25.69;67.47
55757;BME280;41676;44.610;44.078;2023-07-20T03:22:59;99918.34;;;26.18;65.94
55757;BME280;41676;44.610;44.078;2023-07-20T03:27:59;99950.00;;;26.54;65.16
55757;BME280;41676;44.610;44.078;2023-07-20T03:33:00;99934.84;;;25.78;66.66
55757;BME280;41676;44.610;44.078;2023-07-20T03:38:01;99960.81;;;25.39;67.79
55757;BME280;41676;44.610;44.078;2023-07-20T03:43:01;99941.00;;;25.18;68.83
55757;BME280;41676;44.610;44.078;2023-07-20T03:48:02;99929.88;;;24.99;68.46
55757;BME280;41676;44.610;44.078;2023-07-20T03:53:03;99988.19;;;25.79;67.05
55757;BME280;41676;44.610;44.078;2023-07-20T03:58:04;99930.56;;;26.95;63.17
55757;BME280;41676;44.610;44.078;2023-07-20T04:03:05;99982.91;;;28.46;60.03
55757;BME280;41676;44.610;44.078;2023-07-20T04:08:06;99965.47;;;29.40;55.87
55757;BME280;41676;44.610;44.078;2023-07-20T04:13:07;99964.88;;;29.98;54.63
55757;BME280;41676;44.610;44.078;2023-07-20T04:18:08;99957.19;;;30.73;52.66
55757;BME280;41676;44.610;44.078;2023-07-20T04:23:09;99918.28;;;31.25;51.19
55757;BME280;41676;44.610;44.078;2023-07-20T04:28:09;99930.72;;;31.62;49.66
55757;BME280;41676;44.610;44.078;2023-07-20T04:33:10;100000.56;;;32.53;48.21
55757;BME280;41676;44.610;44.078;2023-07-20T04:38:11;99981.81;;;32.46;47.64
55757;BME280;41676;44.610;44.078;2023-07-20T04:43:13;100000.88;;;32.43;47.38
55757;BME280;41676;44.610;44.078;2023-07-20T04:48:15;99997.25;;;32.08;48.30
55757;BME280;41676;44.610;44.078;2023-07-20T04:53:16;99951.50;;;31.14;48.36
55757;BME280;41676;44.610;44.078;2023-07-20T04:58:18;99984.78;;;30.99;48.23
55757;BME280;41676;44.610;44.078;2023-07-20T05:03:19;99996.88;;;30.76;48.72
55757;BME280;41676;44.610;44.078;2023-07-20T05:08:20;100013.56;;;30.29;50.34
55757;BME280;41676;44.610;44.078;2023-07-20T05:13:23;99969.06;;;30.46;48.83
55757;BME280;41676;44.610;44.078;2023-07-20T05:18:23;99932.66;;;29.82;49.39
55757;BME280;41676;44.610;44.078;2023-07-20T05:23:24;99895.59;;;28.87;51.10
55757;BME280;41676;44.610;44.078;2023-07-20T05:28:26;99919.78;;;28.94;51.58
55757;BME280;41676;44.610;44.078;2023-07-20T05:33:27;99897.75;;;28.72;52.43
55757;BME280;41676;44.610;44.078;2023-07-20T05:38:28;99977.44;;;29.58;52.21
55757;BME280;41676;44.610;44.078;2023-07-20T05:43:29;99954.94;;;29.47;52.65
55757;BME280;41676;44.610;44.078;2023-07-20T05:48:30;99869.31;;;29.33;51.36
55757;BME280;41676;44.610;44.078;2023-07-20T05:53:31;99981.41;;;30.21;51.02
55757;BME280;41676;44.610;44.078;2023-07-20T05:58:32;99875.69;;;29.42;51.10
55757;BME280;41676;44.610;44.078;2023-07-20T06:03:32;99985.66;;;29.99;51.02
55757;BME280;41676;44.610;44.078;2023-07-20T06:08:34;99927.50;;;29.66;51.56
55757;BME280;41676;44.610;44.078;2023-07-20T06:13:35;99931.13;;;29.75;50.77
55757;BME280;41676;44.610;44.078;2023-07-20T06:18:36;99870.13;;;29.20;51.15
55757;BME280;41676;44.610;44.078;2023-07-20T06:23:36;99980.50;;;29.70;52.09
55757;BME280;41676;44.610;44.078;2023-07-20T06:28:37;99962.88;;;29.76;52.33
55757;BME280;41676;44.610;44.078;2023-07-20T06:33:38;99983.13;;;30.03;51.38
55757;BME280;41676;44.610;44.078;2023-07-20T06:38:39;99858.06;;;29.48;50.94
55757;BME280;41676;44.610;44.078;2023-07-20T06:43:39;99938.66;;;30.20;50.26
55757;BME280;41676;44.610;44.078;2023-07-20T06:48:40;99920.63;;;30.19;49.11
55757;BME280;41676;44.610;44.078;2023-07-20T06:53:41;99914.66;;;30.39;48.68
55757;BME280;41676;44.610;44.078;2023-07-20T06:58:41;99921.09;;;30.35;47.42
55757;BME280;41676;44.610;44.078;2023-07-20T07:03:42;99926.81;;;30.47;47.59
55757;BME280;41676;44.610;44.078;2023-07-20T07:08:44;99929.63;;;30.56;45.71
55757;BME280;41676;44.610;44.078;2023-07-20T07:13:45;99902.22;;;30.56;44.41
55757;BME280;41676;44.610;44.078;2023-07-20T07:18:49;99924.66;;;30.80;44.14
55757;BME280;41676;44.610;44.078;2023-07-20T07:23:50;99865.78;;;30.55;44.32
55757;BME280;41676;44.610;44.078;2023-07-20T07:28:53;99923.34;;;31.00;43.40
55757;BME280;41676;44.610;44.078;2023-07-20T07:33:54;99926.13;;;31.09;43.67
55757;BME280;41676;44.610;44.078;2023-07-20T07:38:55;99826.44;;;30.29;44.09
55757;BME280;41676;44.610;44.078;2023-07-20T07:43:56;99904.59;;;30.48;44.78
55757;BME280;41676;44.610;44.078;2023-07-20T07:48:57;99889.50;;;30.82;43.06
55757;BME280;41676;44.610;44.078;2023-07-20T07:53:57;99847.75;;;30.63;42.46
55757;BME280;41676;44.610;44.078;2023-07-20T07:58:58;99894.22;;;30.68;41.81
55757;BME280;41676;44.610;44.078;2023-07-20T08:23:48;99902.75;;;31.11;40.93
55757;BME280;41676;44.610;44.078;2023-07-20T08:28:51;99860.19;;;31.31;39.99
55757;BME280;41676;44.610;44.078;2023-07-20T08:33:52;99856.09;;;31.60;39.88
55757;BME280;41676;44.610;44.078;2023-07-20T08:38:53;99856.97;;;31.95;38.93
55757;BME280;41676;44.610;44.078;2023-07-20T08:43:54;99822.22;;;32.17;38.95
55757;BME280;41676;44.610;44.078;2023-07-20T08:48:58;99889.59;;;32.14;38.98
55757;BME280;41676;44.610;44.078;2023-07-20T08:53:59;99885.19;;;31.78;39.24
55757;BME280;41676;44.610;44.078;2023-07-20T08:59:01;99836.09;;;31.68;38.77
55757;BME280;41676;44.610;44.078;2023-07-20T09:04:01;99849.03;;;32.11;38.29
55757;BME280;41676;44.610;44.078;2023-07-20T09:09:03;99799.22;;;32.21;38.02
55757;BME280;41676;44.610;44.078;2023-07-20T09:14:05;99870.66;;;32.65;37.56
55757;BME280;41676;44.610;44.078;2023-07-20T09:19:06;99882.72;;;32.90;36.68
55757;BME280;41676;44.610;44.078;2023-07-20T09:24:07;99845.25;;;32.68;36.99
55757;BME280;41676;44.610;44.078;2023-07-20T09:29:08;99875.22;;;32.17;37.61
55757;BME280;41676;44.610;44.078;2023-07-20T09:34:10;99876.81;;;32.01;38.46
55757;BME280;41676;44.610;44.078;2023-07-20T09:39:11;99837.38;;;31.62;37.55
55757;BME280;41676;44.610;44.078;2023-07-20T09:44:14;99871.94;;;31.63;38.45
55757;BME280;41676;44.610;44.078;2023-07-20T09:49:17;99826.41;;;31.22;38.73
55757;BME280;41676;44.610;44.078;2023-07-20T09:54:19;99863.88;;;32.36;37.17
55757;BME280;41676;44.610;44.078;2023-07-20T09:59:22;99858.94;;;32.94;36.57
55757;BME280;41676;44.610;44.078;2023-07-20T10:04:23;99747.59;;;32.53;36.47
55757;BME280;41676;44.610;44.078;2023-07-20T10:09:25;99853.66;;;33.18;35.65
55757;BME280;41676;44.610;44.078;2023-07-20T10:14:27;99858.53;;;33.51;36.28
55757;BME280;41676;44.610;44.078;2023-07-20T10:19:42;99839.06;;;33.27;34.67
55757;BME280;41676;44.610;44.078;2023-07-20T10:24:46;99716.75;;;32.30;35.40
55757;BME280;41676;44.610;44.078;2023-07-20T10:29:48;99731.94;;;32.83;34.94
55757;BME280;41676;44.610;44.078;2023-07-20T10:34:51;99786.78;;;33.48;34.97
55757;BME280;41676;44.610;44.078;2023-07-20T10:39:55;99779.94;;;33.75;34.69
55757;BME280;41676;44.610;44.078;2023-07-20T10:44:57;99782.09;;;33.18;35.14
55757;BME280;41676;44.610;44.078;2023-07-20T10:49:59;99826.19;;;32.54;35.10
55757;BME280;41676;44.610;44.078;2023-07-20T10:55:16;99819.97;;;32.10;35.37
55757;BME280;41676;44.610;44.078;2023-07-20T11:00:19;99761.59;;;31.44;36.15
55757;BME280;41676;44.610;44.078;2023-07-20T11:05:38;99828.78;;;32.42;36.49
55757;BME280;41676;44.610;44.078;2023-07-20T11:10:40;99721.47;;;32.29;35.62
55757;BME280;41676;44.610;44.078;2023-07-20T11:20:57;99694.56;;;31.79;35.25
55757;BME280;41676;44.610;44.078;2023-07-20T11:25:58;99822.31;;;32.55;34.95
55757;BME280;41676;44.610;44.078;2023-07-20T11:31:00;99805.25;;;32.79;34.77
55757;BME280;41676;44.610;44.078;2023-07-20T11:36:01;99810.25;;;33.24;34.62
55757;BME280;41676;44.610;44.078;2023-07-20T11:41:05;99671.50;;;32.66;33.27
55757;BME280;41676;44.610;44.078;2023-07-20T11:46:05;99730.94;;;33.17;33.41
55757;BME280;41676;44.610;44.078;2023-07-20T11:51:13;99721.88;;;33.38;32.96
55757;BME280;41676;44.610;44.078;2023-07-20T11:56:14;99781.63;;;33.16;34.21
55757;BME280;41676;44.610;44.078;2023-07-20T12:01:15;99748.41;;;32.92;33.20
55757;BME280;41676;44.610;44.078;2023-07-20T12:06:17;99748.06;;;33.23;32.97
55757;BME280;41676;44.610;44.078;2023-07-20T12:11:34;99707.25;;;33.25;32.41
55757;BME280;41676;44.610;44.078;2023-07-20T12:16:36;99776.72;;;33.52;32.75
55757;BME280;41676;44.610;44.078;2023-07-20T12:21:40;99783.66;;;33.49;33.10
55757;BME280;41676;44.610;44.078;2023-07-20T12:45:51;99758.06;;;31.95;33.73
55757;BME280;41676;44.610;44.078;2023-07-20T12:50:51;99731.41;;;31.96;33.84
55757;BME280;41676;44.610;44.078;2023-07-20T12:55:52;99772.19;;;32.58;32.65
55757;BME280;41676;44.610;44.078;2023-07-20T13:00:54;99719.91;;;32.67;32.67
55757;BME280;41676;44.610;44.078;2023-07-20T13:05:54;99761.44;;;33.33;31.96
55757;BME280;41676;44.610;44.078;2023-07-20T13:10:55;99724.81;;;32.82;32.08
55757;BME280;41676;44.610;44.078;2023-07-20T13:15:56;99745.41;;;32.76;32.73
55757;BME280;41676;44.610;44.078;2023-07-20T13:20:57;99766.84;;;33.00;32.07
55757;BME280;41676;44.610;44.078;2023-07-20T13:25:58;99732.00;;;33.04;32.08
55757;BME280;41676;44.610;44.078;2023-07-20T13:31:01;99754.25;;;33.41;32.43
55757;BME280;41676;44.610;44.078;2023-07-20T13:36:01;99739.81;;;33.44;31.42
55757;BME280;41676;44.610;44.078;2023-07-20T13:41:02;99732.13;;;33.58;31.35
55757;BME280;41676;44.610;44.078;2023-07-20T13:46:03;99705.13;;;33.52;30.73
55757;BME280;41676;44.610;44.078;2023-07-20T13:51:04;99761.91;;;33.77;30.84
55757;BME280;41676;44.610;44.078;2023-07-20T13:56:05;99756.72;;;33.63;30.77
55757;BME280;41676;44.610;44.078;2023-07-20T14:01:05;99713.44;;;33.43;30.07
55757;BME280;41676;44.610;44.078;2023-07-20T14:06:06;99738.00;;;33.48;30.83
55757;BME280;41676;44.610;44.078;2023-07-20T14:11:07;99753.44;;;33.40;31.25
55757;BME280;41676;44.610;44.078;2023-07-20T14:16:08;99709.34;;;33.28;31.22
55757;BME280;41676;44.610;44.078;2023-07-20T14:21:09;99697.72;;;33.23;30.56
55757;BME280;41676;44.610;44.078;2023-07-20T14:26:10;99765.44;;;33.66;30.15
55757;BME280;41676;44.610;44.078;2023-07-20T14:31:11;99745.56;;;33.60;29.99
55757;BME280;41676;44.610;44.078;2023-07-20T14:36:11;99746.41;;;33.73;31.33
55757;BME280;41676;44.610;44.078;2023-07-20T14:41:12;99730.75;;;33.64;30.05
55757;BME280;41676;44.610;44.078;2023-07-20T14:46:13;99694.47;;;33.41;29.76
55757;BME280;41676;44.610;44.078;2023-07-20T14:51:14;99757.97;;;33.45;30.50
55757;BME280;41676;44.610;44.078;2023-07-20T14:56:15;99679.84;;;32.78;31.04
55757;BME280;41676;44.610;44.078;2023-07-20T15:01:15;99703.66;;;32.74;30.96
55757;BME280;41676;44.610;44.078;2023-07-20T15:06:16;99731.69;;;32.97;30.87
55757;BME280;41676;44.610;44.078;2023-07-20T15:11:17;99753.72;;;32.97;31.17
55757;BME280;41676;44.610;44.078;2023-07-20T15:16:18;99760.69;;;32.94;31.50
55757;BME280;41676;44.610;44.078;2023-07-20T15:21:18;99755.13;;;32.73;31.46
55757;BME280;41676;44.610;44.078;2023-07-20T15:26:19;99750.34;;;32.53;31.43
55757;BME280;41676;44.610;44.078;2023-07-20T15:31:21;99764.94;;;32.45;31.69
55757;BME280;41676;44.610;44.078;2023-07-20T15:36:23;99776.06;;;32.40;31.61
55757;BME280;41676;44.610;44.078;2023-07-20T15:41:24;99683.06;;;31.08;31.69
55757;BME280;41676;44.610;44.078;2023-07-20T15:46:44;99783.53;;;31.44;31.79
55757;BME280;41676;44.610;44.078;2023-07-20T15:51:45;99710.41;;;30.73;32.66
55757;BME280;41676;44.610;44.078;2023-07-20T15:56:48;99783.56;;;30.95;32.30
55757;BME280;41676;44.610;44.078;2023-07-20T16:01:49;99760.03;;;30.63;32.65
55757;BME280;41676;44.610;44.078;2023-07-20T16:06:50;99681.19;;;29.97;33.41
55757;BME280;41676;44.610;44.078;2023-07-20T16:11:50;99772.94;;;30.31;33.82
55757;BME280;41676;44.610;44.078;2023-07-20T16:16:51;99749.91;;;29.87;34.97
55757;BME280;41676;44.610;44.078;2023-07-20T16:21:52;99756.00;;;29.62;36.19
55757;BME280;41676;44.610;44.078;2023-07-20T16:26:53;99727.00;;;29.10;37.61
55757;BME280;41676;44.610;44.078;2023-07-20T16:31:54;99775.81;;;29.03;39.53
55757;BME280;41676;44.610;44.078;2023-07-20T16:36:55;99780.84;;;28.55;40.99
55757;BME280;41676;44.610;44.078;2023-07-20T16:41:56;99751.94;;;28.02;42.12
55757;BME280;41676;44.610;44.078;2023-07-20T16:46:57;99795.19;;;27.95;41.95
55757;BME280;41676;44.610;44.078;2023-07-20T16:51:58;99738.34;;;27.64;39.92
55757;BME280;41676;44.610;44.078;2023-07-20T16:56:59;99775.94;;;27.86;39.12
55757;BME280;41676;44.610;44.078;2023-07-20T17:01:59;99813.72;;;27.98;39.23
55757;BME280;41676;44.610;44.078;2023-07-20T17:07:00;99803.63;;;27.80;39.68
55757;BME280;41676;44.610;44.078;2023-07-20T17:12:01;99773.19;;;27.48;39.99
55757;BME280;41676;44.610;44.078;2023-07-20T17:17:03;99806.66;;;27.54;40.01
55757;BME280;41676;44.610;44.078;2023-07-20T17:22:04;99754.31;;;27.09;40.38
55757;BME280;41676;44.610;44.078;2023-07-20T17:27:15;99768.84;;;27.04;40.61
55757;BME280;41676;44.610;44.078;2023-07-20T17:32:16;99835.25;;;27.38;40.58
55757;BME280;41676;44.610;44.078;2023-07-20T17:37:17;99763.31;;;26.85;40.46
55757;BME280;41676;44.610;44.078;2023-07-20T17:42:21;99850.06;;;27.31;40.56
55757;BME280;41676;44.610;44.078;2023-07-20T17:47:22;99807.34;;;26.98;40.89
55757;BME280;41676;44.610;44.078;2023-07-20T17:52:23;99853.56;;;27.08;40.78
55757;BME280;41676;44.610;44.078;2023-07-20T17:57:24;99851.53;;;26.95;41.14
55757;BME280;41676;44.610;44.078;2023-07-20T18:02:25;99789.91;;;26.40;41.54
55757;BME280;41676;44.610;44.078;2023-07-20T18:07:27;99827.84;;;26.66;41.59
55757;BME280;41676;44.610;44.078;2023-07-20T18:12:29;99842.31;;;26.61;42.36
55757;BME280;41676;44.610;44.078;2023-07-20T18:17:30;99807.97;;;26.31;42.28
55757;BME280;41676;44.610;44.078;2023-07-20T18:22:31;99831.91;;;26.34;43.75
55757;BME280;41676;44.610;44.078;2023-07-20T18:27:32;99843.00;;;26.43;42.48
55757;BME280;41676;44.610;44.078;2023-07-20T18:32:33;99834.38;;;26.31;43.71
55757;BME280;41676;44.610;44.078;2023-07-20T18:37:34;99845.84;;;26.28;43.53
55757;BME280;41676;44.610;44.078;2023-07-20T18:42:34;99816.72;;;25.94;45.20
55757;BME280;41676;44.610;44.078;2023-07-20T18:47:35;99834.91;;;25.93;45.23
55757;BME280;41676;44.610;44.078;2023-07-20T18:52:39;99820.72;;;25.52;48.19
55757;BME280;41676;44.610;44.078;2023-07-20T18:57:40;99838.75;;;25.38;47.49
55757;BME280;41676;44.610;44.078;2023-07-20T19:02:41;99813.53;;;25.06;47.85
55757;BME280;41676;44.610;44.078;2023-07-20T19:07:42;99838.00;;;25.17;48.21
55757;BME280;41676;44.610;44.078;2023-07-20T19:12:43;99843.97;;;25.03;48.96
55757;BME280;41676;44.610;44.078;2023-07-20T19:17:44;99798.72;;;24.63;49.44
55757;BME280;41676;44.610;44.078;2023-07-20T19:22:45;99783.50;;;24.47;50.46
55757;BME280;41676;44.610;44.078;2023-07-20T19:27:45;99822.34;;;24.57;50.76
55757;BME280;41676;44.610;44.078;2023-07-20T19:32:46;99819.34;;;24.38;51.12
55757;BME280;41676;44.610;44.078;2023-07-20T19:37:47;99749.03;;;23.86;52.25
55757;BME280;41676;44.610;44.078;2023-07-20T19:42:48;99789.16;;;23.84;53.85
55757;BME280;41676;44.610;44.078;2023-07-20T19:47:50;99831.25;;;23.97;54.53
55757;BME280;41676;44.610;44.078;2023-07-20T19:52:50;99821.19;;;23.87;54.69
55757;BME280;41676;44.610;44.078;2023-07-20T19:57:52;99828.16;;;23.57;54.46
55757;BME280;41676;44.610;44.078;2023-07-20T20:02:52;99798.81;;;23.34;55.60
55757;BME280;41676;44.610;44.078;2023-07-20T20:07:53;99803.03;;;23.14;56.91
55757;BME280;41676;44.610;44.078;2023-07-20T20:12:54;99816.25;;;23.00;57.86
55757;BME280;41676;44.610;44.078;2023-07-20T20:17:55;99840.94;;;23.04;59.01
55757;BME280;41676;44.610;44.078;2023-07-20T20:22:58;99850.38;;;23.01;59.24
55757;BME280;41676;44.610;44.078;2023-07-20T20:27:58;99739.91;;;22.19;59.28
55757;BME280;41676;44.610;44.078;2023-07-20T20:32:59;99847.75;;;22.74;59.27
55757;BME280;41676;44.610;44.078;2023-07-20T20:38:00;99809.66;;;22.44;58.92
55757;BME280;41676;44.610;44.078;2023-07-20T20:43:01;99836.25;;;22.57;59.75
55757;BME280;41676;44.610;44.078;2023-07-20T20:48:02;99770.38;;;22.09;59.06
55757;BME280;41676;44.610;44.078;2023-07-20T20:53:07;99847.53;;;22.44;58.80
55757;BME280;41676;44.610;44.078;2023-07-20T20:58:09;99853.13;;;22.37;58.90
55757;BME280;41676;44.610;44.078;2023-07-20T21:03:10;99765.16;;;21.70;58.65
55757;BME280;41676;44.610;44.078;2023-07-20T21:08:11;99844.28;;;22.15;58.46
55757;BME280;41676;44.610;44.078;2023-07-20T21:13:15;99840.69;;;22.09;59.67
55757;BME280;41676;44.610;44.078;2023-07-20T21:18:16;99806.16;;;21.89;59.81
55757;BME280;41676;44.610;44.078;2023-07-20T21:23:17;99829.28;;;22.02;59.18
55757;BME280;41676;44.610;44.078;2023-07-20T21:28:21;99845.59;;;22.12;59.24
55757;BME280;41676;44.610;44.078;2023-07-20T21:33:21;99831.41;;;22.00;59.27
55757;BME280;41676;44.610;44.078;2023-07-20T21:38:22;99773.97;;;21.60;59.98
55757;BME280;41676;44.610;44.078;2023-07-20T21:43:23;99804.69;;;21.76;59.77
55757;BME280;41676;44.610;44.078;2023-07-20T21:48:24;99747.69;;;21.56;60.73
55757;BME280;41676;44.610;44.078;2023-07-20T21:53:24;99851.63;;;22.19;60.68
55757;BME280;41676;44.610;44.078;2023-07-20T21:58:25;99855.31;;;22.35;60.05
55757;BME280;41676;44.610;44.078;2023-07-20T22:03:26;99858.66;;;22.47;58.99
55757;BME280;41676;44.610;44.078;2023-07-20T22:08:27;99848.88;;;22.41;59.53
55757;BME280;41676;44.610;44.078;2023-07-20T22:13:27;99806.28;;;22.31;58.82
55757;BME280;41676;44.610;44.078;2023-07-20T22:18:29;99829.22;;;22.61;59.44
55757;BME280;41676;44.610;44.078;2023-07-20T22:23:31;99850.81;;;22.88;58.86
55757;BME280;41676;44.610;44.078;2023-07-20T22:28:32;99816.88;;;22.75;57.38
55757;BME280;41676;44.610;44.078;2023-07-20T22:33:32;99841.47;;;23.01;55.78
55757;BME280;41676;44.610;44.078;2023-07-20T22:38:33;99858.34;;;23.23;54.04
55757;BME280;41676;44.610;44.078;2023-07-20T22:43:34;99804.13;;;23.13;52.93
55757;BME280;41676;44.610;44.078;2023-07-20T22:48:35;99781.38;;;23.14;52.09
55757;BME280;41676;44.610;44.078;2023-07-20T22:53:37;99788.22;;;23.32;51.36
55757;BME280;41676;44.610;44.078;2023-07-20T22:58:38;99832.22;;;23.65;50.61
55757;BME280;41676;44.610;44.078;2023-07-20T23:03:39;99792.31;;;23.40;50.30
55757;BME280;41676;44.610;44.078;2023-07-20T23:08:40;99741.75;;;23.03;49.58
55757;BME280;41676;44.610;44.078;2023-07-20T23:13:42;99841.72;;;23.62;49.28
55757;BME280;41676;44.610;44.078;2023-07-20T23:18:42;99739.94;;;23.24;47.83
55757;BME280;41676;44.610;44.078;2023-07-20T23:23:43;99757.34;;;23.43;47.38
55757;BME280;41676;44.610;44.078;2023-07-20T23:28:45;99814.16;;;23.96;46.50
55757;BME280;41676;44.610;44.078;2023-07-20T23:33:46;99808.72;;;24.01;46.93
55757;BME280;41676;44.610;44.078;2023-07-20T23:38:47;99763.97;;;23.78;46.40
55757;BME280;41676;44.610;44.078;2023-07-20T23:43:48;99828.03;;;24.15;45.97
55757;BME280;41676;44.610;44.078;2023-07-20T23:48:50;99805.50;;;24.09;45.69
55757;BME280;41676;44.610;44.078;2023-07-20T23:53:51;99809.28;;;24.03;45.87
55757;BME280;41676;44.610;44.078;2023-07-20T23:58:52;99806.03;;;23.96;46.61
